sensor_id;sensor_type;location;lat;lon;timestamp;P1;durP1;ratioP1;P2;durP2;ratioP2
20545;SDS011;10431;50.228;9.112;2023-03-31T00:01:37;3.95;;;0.80;;
20545;SDS011;10431;50.228;9.112;2023-03-31T00:04:07;0.68;;;0.57;;
20545;SDS011;10431;50.228;9.112;2023-03-31T00:06:38;2.08;;;1.00;;
20545;SDS011;10431;50.228;9.112;2023-03-31T00:09:07;0.80;;;0.65;;
20545;SDS011;10431;50.228;9.112;2023-03-31T00:11:36;0.93;;;0.55;;
20545;SDS011;10431;50.228;9.112;2023-03-31T00:14:02;1.00;;;0.75;;
20545;SDS011;10431;50.228;9.112;2023-03-31T00:16:35;1.98;;;0.60;;
20545;SDS011;10431;50.228;9.112;2023-03-31T00:19:02;0.80;;;0.55;;
20545;SDS011;10431;50.228;9.112;2023-03-31T00:21:29;1.17;;;0.73;;
20545;SDS011;10431;50.228;9.112;2023-03-31T00:24:00;0.85;;;0.50;;
20545;SDS011;10431;50.228;9.112;2023-03-31T00:26:28;0.68;;;0.60;;
20545;SDS011;10431;50.228;9.112;2023-03-31T00:28:55;0.73;;;0.63;;
20545;SDS011;10431;50.228;9.112;2023-03-31T00:31:22;0.75;;;0.60;;
20545;SDS011;10431;50.228;9.112;2023-03-31T00:33:49;0.65;;;0.60;;
20545;SDS011;10431;50.228;9.112;2023-03-31T00:36:15;0.85;;;0.70;;
20545;SDS011;10431;50.228;9.112;2023-03-31T00:38:58;1.27;;;0.60;;
20545;SDS011;10431;50.228;9.112;2023-03-31T00:41:27;1.90;;;0.60;;
20545;SDS011;10431;50.228;9.112;2023-03-31T00:44:08;2.15;;;0.60;;
20545;SDS011;10431;50.228;9.112;2023-03-31T00:49:38;0.50;;;0.50;;
20545;SDS011;10431;50.228;9.112;2023-03-31T00:54:39;1.15;;;0.60;;
20545;SDS011;10431;50.228;9.112;2023-03-31T00:57:08;0.75;;;0.50;;
20545;SDS011;10431;50.228;9.112;2023-03-31T00:59:39;1.30;;;0.70;;
20545;SDS011;10431;50.228;9.112;2023-03-31T01:16:43;0.50;;;0.50;;
20545;SDS011;10431;50.228;9.112;2023-03-31T01:19:12;0.68;;;0.50;;
20545;SDS011;10431;50.228;9.112;2023-03-31T01:22:16;0.85;;;0.60;;
20545;SDS011;10431;50.228;9.112;2023-03-31T01:24:57;0.60;;;0.60;;
20545;SDS011;10431;50.228;9.112;2023-03-31T01:27:48;1.02;;;0.60;;
20545;SDS011;10431;50.228;9.112;2023-03-31T01:31:02;1.38;;;0.50;;
20545;SDS011;10431;50.228;9.112;2023-03-31T01:40:38;0.70;;;0.60;;
20545;SDS011;10431;50.228;9.112;2023-03-31T01:42:51;0.60;;;0.50;;
20545;SDS011;10431;50.228;9.112;2023-03-31T01:48:11;0.52;;;0.50;;
20545;SDS011;10431;50.228;9.112;2023-03-31T01:56:32;0.82;;;0.50;;
20545;SDS011;10431;50.228;9.112;2023-03-31T01:59:07;0.60;;;0.52;;
20545;SDS011;10431;50.228;9.112;2023-03-31T02:01:42;0.50;;;0.50;;
20545;SDS011;10431;50.228;9.112;2023-03-31T02:04:40;1.27;;;0.68;;
20545;SDS011;10431;50.228;9.112;2023-03-31T02:07:21;1.05;;;0.40;;
20545;SDS011;10431;50.228;9.112;2023-03-31T02:09:55;0.40;;;0.40;;
20545;SDS011;10431;50.228;9.112;2023-03-31T02:12:25;0.70;;;0.50;;
20545;SDS011;10431;50.228;9.112;2023-03-31T02:14:55;0.50;;;0.50;;
20545;SDS011;10431;50.228;9.112;2023-03-31T02:17:24;0.40;;;0.40;;
20545;SDS011;10431;50.228;9.112;2023-03-31T02:19:58;1.45;;;0.40;;
20545;SDS011;10431;50.228;9.112;2023-03-31T02:22:35;0.70;;;0.60;;
20545;SDS011;10431;50.228;9.112;2023-03-31T02:25:05;0.32;;;0.32;;
20545;SDS011;10431;50.228;9.112;2023-03-31T02:27:35;0.47;;;0.43;;
20545;SDS011;10431;50.228;9.112;2023-03-31T02:30:08;1.17;;;0.50;;
20545;SDS011;10431;50.228;9.112;2023-03-31T02:32:40;0.50;;;0.50;;
20545;SDS011;10431;50.228;9.112;2023-03-31T02:35:16;2.83;;;0.50;;
20545;SDS011;10431;50.228;9.112;2023-03-31T02:37:45;0.40;;;0.40;;
20545;SDS011;10431;50.228;9.112;2023-03-31T02:40:18;0.60;;;0.60;;
20545;SDS011;10431;50.228;9.112;2023-03-31T02:42:46;0.82;;;0.50;;
20545;SDS011;10431;50.228;9.112;2023-03-31T02:48:29;0.60;;;0.52;;
20545;SDS011;10431;50.228;9.112;2023-03-31T02:59:41;0.55;;;0.45;;
20545;SDS011;10431;50.228;9.112;2023-03-31T03:13:21;0.50;;;0.50;;
20545;SDS011;10431;50.228;9.112;2023-03-31T03:15:56;0.73;;;0.40;;
20545;SDS011;10431;50.228;9.112;2023-03-31T03:18:30;0.80;;;0.60;;
20545;SDS011;10431;50.228;9.112;2023-03-31T03:20:56;0.50;;;0.30;;
20545;SDS011;10431;50.228;9.112;2023-03-31T03:23:22;0.82;;;0.50;;
20545;SDS011;10431;50.228;9.112;2023-03-31T03:25:48;1.35;;;0.40;;
20545;SDS011;10431;50.228;9.112;2023-03-31T03:28:15;0.52;;;0.50;;
20545;SDS011;10431;50.228;9.112;2023-03-31T03:30:42;0.52;;;0.43;;
20545;SDS011;10431;50.228;9.112;2023-03-31T03:33:08;1.85;;;0.43;;
20545;SDS011;10431;50.228;9.112;2023-03-31T03:35:34;1.88;;;0.55;;
20545;SDS011;10431;50.228;9.112;2023-03-31T03:38:00;0.85;;;0.60;;
20545;SDS011;10431;50.228;9.112;2023-03-31T03:40:26;0.35;;;0.30;;
20545;SDS011;10431;50.228;9.112;2023-03-31T03:42:53;0.57;;;0.38;;
20545;SDS011;10431;50.228;9.112;2023-03-31T03:45:19;0.60;;;0.50;;
20545;SDS011;10431;50.228;9.112;2023-03-31T03:47:45;0.60;;;0.40;;
20545;SDS011;10431;50.228;9.112;2023-03-31T03:50:11;0.63;;;0.43;;
20545;SDS011;10431;50.228;9.112;2023-03-31T03:52:38;0.47;;;0.47;;
20545;SDS011;10431;50.228;9.112;2023-03-31T03:55:04;0.50;;;0.50;;
20545;SDS011;10431;50.228;9.112;2023-03-31T03:57:31;0.60;;;0.35;;
20545;SDS011;10431;50.228;9.112;2023-03-31T03:59:57;0.30;;;0.30;;
20545;SDS011;10431;50.228;9.112;2023-03-31T04:02:23;0.40;;;0.40;;
20545;SDS011;10431;50.228;9.112;2023-03-31T04:04:50;0.30;;;0.30;;
20545;SDS011;10431;50.228;9.112;2023-03-31T04:07:17;0.55;;;0.40;;
20545;SDS011;10431;50.228;9.112;2023-03-31T04:09:43;0.68;;;0.50;;
20545;SDS011;10431;50.228;9.112;2023-03-31T04:12:09;0.40;;;0.40;;
20545;SDS011;10431;50.228;9.112;2023-03-31T04:14:35;0.50;;;0.40;;
20545;SDS011;10431;50.228;9.112;2023-03-31T04:17:01;0.35;;;0.30;;
20545;SDS011;10431;50.228;9.112;2023-03-31T04:19:28;0.50;;;0.50;;
20545;SDS011;10431;50.228;9.112;2023-03-31T04:21:54;0.95;;;0.45;;
20545;SDS011;10431;50.228;9.112;2023-03-31T04:24:25;0.40;;;0.40;;
20545;SDS011;10431;50.228;9.112;2023-03-31T04:26:55;0.80;;;0.47;;
20545;SDS011;10431;50.228;9.112;2023-03-31T04:29:22;0.40;;;0.32;;
20545;SDS011;10431;50.228;9.112;2023-03-31T04:31:54;0.30;;;0.30;;
20545;SDS011;10431;50.228;9.112;2023-03-31T04:34:23;0.40;;;0.40;;
20545;SDS011;10431;50.228;9.112;2023-03-31T04:36:59;0.45;;;0.45;;
20545;SDS011;10431;50.228;9.112;2023-03-31T04:39:27;0.43;;;0.43;;
20545;SDS011;10431;50.228;9.112;2023-03-31T04:41:56;0.85;;;0.60;;
20545;SDS011;10431;50.228;9.112;2023-03-31T04:44:23;0.60;;;0.38;;
20545;SDS011;10431;50.228;9.112;2023-03-31T04:46:49;0.30;;;0.30;;
20545;SDS011;10431;50.228;9.112;2023-03-31T04:49:15;0.43;;;0.43;;
20545;SDS011;10431;50.228;9.112;2023-03-31T04:51:41;0.40;;;0.40;;
20545;SDS011;10431;50.228;9.112;2023-03-31T04:54:09;0.40;;;0.40;;
20545;SDS011;10431;50.228;9.112;2023-03-31T04:56:35;0.40;;;0.40;;
20545;SDS011;10431;50.228;9.112;2023-03-31T04:59:01;0.40;;;0.40;;
20545;SDS011;10431;50.228;9.112;2023-03-31T05:01:29;0.75;;;0.50;;
20545;SDS011;10431;50.228;9.112;2023-03-31T05:04:01;0.65;;;0.40;;
20545;SDS011;10431;50.228;9.112;2023-03-31T05:06:28;0.40;;;0.40;;
20545;SDS011;10431;50.228;9.112;2023-03-31T05:08:54;4.25;;;0.85;;
20545;SDS011;10431;50.228;9.112;2023-03-31T05:11:20;10.68;;;0.80;;
20545;SDS011;10431;50.228;9.112;2023-03-31T05:13:47;1.52;;;0.80;;
20545;SDS011;10431;50.228;9.112;2023-03-31T05:16:13;6.72;;;1.52;;
20545;SDS011;10431;50.228;9.112;2023-03-31T05:18:40;11.57;;;3.03;;
20545;SDS011;10431;50.228;9.112;2023-03-31T05:21:08;5.70;;;2.00;;
20545;SDS011;10431;50.228;9.112;2023-03-31T05:23:36;3.67;;;1.38;;
20545;SDS011;10431;50.228;9.112;2023-03-31T05:26:02;3.90;;;1.20;;
20545;SDS011;10431;50.228;9.112;2023-03-31T05:28:28;7.93;;;1.67;;
20545;SDS011;10431;50.228;9.112;2023-03-31T05:30:54;6.22;;;1.63;;
20545;SDS011;10431;50.228;9.112;2023-03-31T05:33:24;4.85;;;1.50;;
20545;SDS011;10431;50.228;9.112;2023-03-31T05:35:50;4.30;;;1.40;;
20545;SDS011;10431;50.228;9.112;2023-03-31T05:38:16;14.20;;;2.08;;
20545;SDS011;10431;50.228;9.112;2023-03-31T05:40:42;8.32;;;1.85;;
20545;SDS011;10431;50.228;9.112;2023-03-31T05:43:09;6.45;;;1.95;;
20545;SDS011;10431;50.228;9.112;2023-03-31T05:45:35;8.15;;;2.38;;
20545;SDS011;10431;50.228;9.112;2023-03-31T05:48:01;6.13;;;1.92;;
20545;SDS011;10431;50.228;9.112;2023-03-31T05:50:28;4.90;;;1.88;;
20545;SDS011;10431;50.228;9.112;2023-03-31T05:52:54;7.70;;;1.92;;
20545;SDS011;10431;50.228;9.112;2023-03-31T05:55:20;8.70;;;2.08;;
20545;SDS011;10431;50.228;9.112;2023-03-31T05:57:46;7.45;;;1.85;;
20545;SDS011;10431;50.228;9.112;2023-03-31T06:00:13;9.80;;;2.08;;
20545;SDS011;10431;50.228;9.112;2023-03-31T06:02:39;8.45;;;2.08;;
20545;SDS011;10431;50.228;9.112;2023-03-31T06:05:06;5.82;;;1.70;;
20545;SDS011;10431;50.228;9.112;2023-03-31T06:07:32;7.38;;;2.50;;
20545;SDS011;10431;50.228;9.112;2023-03-31T06:09:59;6.55;;;2.00;;
20545;SDS011;10431;50.228;9.112;2023-03-31T06:12:25;7.82;;;1.65;;
20545;SDS011;10431;50.228;9.112;2023-03-31T06:14:51;8.15;;;1.60;;
20545;SDS011;10431;50.228;9.112;2023-03-31T06:17:17;14.10;;;2.42;;
20545;SDS011;10431;50.228;9.112;2023-03-31T06:19:43;16.73;;;2.10;;
20545;SDS011;10431;50.228;9.112;2023-03-31T06:22:10;6.75;;;1.77;;
20545;SDS011;10431;50.228;9.112;2023-03-31T06:24:36;5.72;;;1.45;;
20545;SDS011;10431;50.228;9.112;2023-03-31T06:27:02;5.18;;;1.45;;
20545;SDS011;10431;50.228;9.112;2023-03-31T06:29:28;8.18;;;1.75;;
20545;SDS011;10431;50.228;9.112;2023-03-31T06:31:55;5.53;;;1.70;;
20545;SDS011;10431;50.228;9.112;2023-03-31T06:34:21;8.55;;;1.88;;
20545;SDS011;10431;50.228;9.112;2023-03-31T06:36:47;3.78;;;1.50;;
20545;SDS011;10431;50.228;9.112;2023-03-31T06:39:13;7.97;;;1.90;;
20545;SDS011;10431;50.228;9.112;2023-03-31T06:41:39;11.93;;;2.00;;
20545;SDS011;10431;50.228;9.112;2023-03-31T06:44:06;6.32;;;1.60;;
20545;SDS011;10431;50.228;9.112;2023-03-31T06:46:32;3.60;;;1.50;;
20545;SDS011;10431;50.228;9.112;2023-03-31T06:48:58;4.45;;;1.35;;
20545;SDS011;10431;50.228;9.112;2023-03-31T06:51:24;7.05;;;1.73;;
20545;SDS011;10431;50.228;9.112;2023-03-31T06:53:50;5.82;;;1.75;;
20545;SDS011;10431;50.228;9.112;2023-03-31T06:56:17;9.23;;;1.75;;
20545;SDS011;10431;50.228;9.112;2023-03-31T06:58:43;6.65;;;1.50;;
20545;SDS011;10431;50.228;9.112;2023-03-31T07:01:09;9.32;;;1.77;;
20545;SDS011;10431;50.228;9.112;2023-03-31T07:03:36;7.38;;;1.50;;
20545;SDS011;10431;50.228;9.112;2023-03-31T07:06:02;6.05;;;1.50;;
20545;SDS011;10431;50.228;9.112;2023-03-31T07:08:28;6.45;;;1.67;;
20545;SDS011;10431;50.228;9.112;2023-03-31T07:10:56;5.43;;;1.70;;
20545;SDS011;10431;50.228;9.112;2023-03-31T07:13:24;9.45;;;1.80;;
20545;SDS011;10431;50.228;9.112;2023-03-31T07:15:51;6.40;;;1.33;;
20545;SDS011;10431;50.228;9.112;2023-03-31T07:18:18;5.70;;;1.25;;
20545;SDS011;10431;50.228;9.112;2023-03-31T07:20:48;4.82;;;1.30;;
20545;SDS011;10431;50.228;9.112;2023-03-31T07:23:15;6.60;;;1.48;;
20545;SDS011;10431;50.228;9.112;2023-03-31T07:25:42;4.88;;;1.38;;
20545;SDS011;10431;50.228;9.112;2023-03-31T07:28:08;2.53;;;1.13;;
20545;SDS011;10431;50.228;9.112;2023-03-31T07:30:34;6.13;;;1.50;;
20545;SDS011;10431;50.228;9.112;2023-03-31T07:33:01;6.13;;;1.85;;
20545;SDS011;10431;50.228;9.112;2023-03-31T07:35:28;6.32;;;1.48;;
20545;SDS011;10431;50.228;9.112;2023-03-31T07:37:54;5.10;;;1.52;;
20545;SDS011;10431;50.228;9.112;2023-03-31T07:40:21;9.13;;;1.48;;
20545;SDS011;10431;50.228;9.112;2023-03-31T07:42:49;7.55;;;1.45;;
20545;SDS011;10431;50.228;9.112;2023-03-31T07:45:17;4.55;;;1.45;;
20545;SDS011;10431;50.228;9.112;2023-03-31T07:47:45;7.28;;;1.75;;
20545;SDS011;10431;50.228;9.112;2023-03-31T07:50:12;7.88;;;1.48;;
20545;SDS011;10431;50.228;9.112;2023-03-31T07:52:38;11.30;;;1.63;;
20545;SDS011;10431;50.228;9.112;2023-03-31T07:55:05;5.25;;;1.67;;
20545;SDS011;10431;50.228;9.112;2023-03-31T07:57:33;11.15;;;1.60;;
20545;SDS011;10431;50.228;9.112;2023-03-31T08:00:00;11.65;;;1.58;;
20545;SDS011;10431;50.228;9.112;2023-03-31T08:02:37;6.15;;;1.52;;
20545;SDS011;10431;50.228;9.112;2023-03-31T08:05:05;6.18;;;1.48;;
20545;SDS011;10431;50.228;9.112;2023-03-31T08:07:33;4.05;;;1.33;;
20545;SDS011;10431;50.228;9.112;2023-03-31T08:10:01;7.35;;;1.67;;
20545;SDS011;10431;50.228;9.112;2023-03-31T08:12:29;7.10;;;1.42;;
20545;SDS011;10431;50.228;9.112;2023-03-31T08:14:55;4.35;;;1.52;;
20545;SDS011;10431;50.228;9.112;2023-03-31T08:17:22;5.15;;;1.77;;
20545;SDS011;10431;50.228;9.112;2023-03-31T08:19:48;5.20;;;1.65;;
20545;SDS011;10431;50.228;9.112;2023-03-31T08:22:16;7.40;;;1.52;;
20545;SDS011;10431;50.228;9.112;2023-03-31T08:24:43;9.77;;;1.73;;
20545;SDS011;10431;50.228;9.112;2023-03-31T08:27:09;8.10;;;1.60;;
20545;SDS011;10431;50.228;9.112;2023-03-31T08:29:35;4.85;;;1.20;;
20545;SDS011;10431;50.228;9.112;2023-03-31T08:32:01;3.25;;;1.63;;
20545;SDS011;10431;50.228;9.112;2023-03-31T08:34:27;7.97;;;1.95;;
20545;SDS011;10431;50.228;9.112;2023-03-31T08:36:54;3.83;;;1.30;;
20545;SDS011;10431;50.228;9.112;2023-03-31T08:39:20;6.22;;;1.60;;
20545;SDS011;10431;50.228;9.112;2023-03-31T08:44:55;3.70;;;1.65;;
20545;SDS011;10431;50.228;9.112;2023-03-31T08:47:26;4.15;;;1.88;;
20545;SDS011;10431;50.228;9.112;2023-03-31T08:49:56;8.20;;;1.58;;
20545;SDS011;10431;50.228;9.112;2023-03-31T08:52:31;4.18;;;1.92;;
20545;SDS011;10431;50.228;9.112;2023-03-31T08:55:04;6.28;;;1.40;;
20545;SDS011;10431;50.228;9.112;2023-03-31T08:57:52;8.30;;;2.22;;
20545;SDS011;10431;50.228;9.112;2023-03-31T09:00:35;4.53;;;1.65;;
20545;SDS011;10431;50.228;9.112;2023-03-31T09:03:12;6.82;;;1.75;;
20545;SDS011;10431;50.228;9.112;2023-03-31T09:05:54;7.28;;;1.70;;
20545;SDS011;10431;50.228;9.112;2023-03-31T09:08:34;8.35;;;1.48;;
20545;SDS011;10431;50.228;9.112;2023-03-31T09:11:22;9.80;;;1.77;;
20545;SDS011;10431;50.228;9.112;2023-03-31T09:19:56;11.63;;;1.33;;
20545;SDS011;10431;50.228;9.112;2023-03-31T09:22:34;4.05;;;1.50;;
20545;SDS011;10431;50.228;9.112;2023-03-31T09:25:05;8.55;;;1.80;;
20545;SDS011;10431;50.228;9.112;2023-03-31T09:27:35;5.97;;;1.73;;
20545;SDS011;10431;50.228;9.112;2023-03-31T09:30:14;4.65;;;1.60;;
20545;SDS011;10431;50.228;9.112;2023-03-31T09:32:51;4.63;;;1.48;;
20545;SDS011;10431;50.228;9.112;2023-03-31T09:35:23;6.13;;;1.50;;
20545;SDS011;10431;50.228;9.112;2023-03-31T09:37:51;3.53;;;1.55;;
20545;SDS011;10431;50.228;9.112;2023-03-31T09:40:20;3.00;;;1.35;;
20545;SDS011;10431;50.228;9.112;2023-03-31T09:43:34;7.57;;;1.67;;
20545;SDS011;10431;50.228;9.112;2023-03-31T09:45:44;5.60;;;1.60;;
20545;SDS011;10431;50.228;9.112;2023-03-31T09:48:12;4.13;;;1.60;;
20545;SDS011;10431;50.228;9.112;2023-03-31T09:50:54;3.13;;;1.52;;
20545;SDS011;10431;50.228;9.112;2023-03-31T09:53:42;3.00;;;1.70;;
20545;SDS011;10431;50.228;9.112;2023-03-31T09:56:31;8.65;;;2.75;;
20545;SDS011;10431;50.228;9.112;2023-03-31T09:59:13;11.05;;;3.97;;
20545;SDS011;10431;50.228;9.112;2023-03-31T10:01:41;10.18;;;3.85;;
20545;SDS011;10431;50.228;9.112;2023-03-31T10:04:20;15.93;;;4.45;;
20545;SDS011;10431;50.228;9.112;2023-03-31T10:06:49;13.20;;;4.95;;
20545;SDS011;10431;50.228;9.112;2023-03-31T10:09:18;13.40;;;4.63;;
20545;SDS011;10431;50.228;9.112;2023-03-31T10:11:54;14.02;;;5.20;;
20545;SDS011;10431;50.228;9.112;2023-03-31T10:14:25;15.02;;;5.25;;
20545;SDS011;10431;50.228;9.112;2023-03-31T10:17:05;13.25;;;5.22;;
20545;SDS011;10431;50.228;9.112;2023-03-31T10:19:35;12.60;;;5.10;;
20545;SDS011;10431;50.228;9.112;2023-03-31T10:22:05;14.60;;;5.13;;
20545;SDS011;10431;50.228;9.112;2023-03-31T10:24:41;18.73;;;5.00;;
20545;SDS011;10431;50.228;9.112;2023-03-31T10:29:52;14.32;;;5.78;;
20545;SDS011;10431;50.228;9.112;2023-03-31T10:32:22;14.90;;;5.43;;
20545;SDS011;10431;50.228;9.112;2023-03-31T10:34:50;18.15;;;5.43;;
20545;SDS011;10431;50.228;9.112;2023-03-31T10:37:17;15.27;;;5.22;;
20545;SDS011;10431;50.228;9.112;2023-03-31T10:39:47;14.48;;;5.15;;
20545;SDS011;10431;50.228;9.112;2023-03-31T10:42:21;14.85;;;5.43;;
20545;SDS011;10431;50.228;9.112;2023-03-31T10:44:48;19.70;;;5.60;;
20545;SDS011;10431;50.228;9.112;2023-03-31T10:49:50;20.90;;;5.75;;
20545;SDS011;10431;50.228;9.112;2023-03-31T10:52:22;16.77;;;5.28;;
20545;SDS011;10431;50.228;9.112;2023-03-31T10:54:56;18.15;;;5.50;;
20545;SDS011;10431;50.228;9.112;2023-03-31T11:00:23;16.85;;;5.63;;
20545;SDS011;10431;50.228;9.112;2023-03-31T11:13:33;15.45;;;5.43;;
20545;SDS011;10431;50.228;9.112;2023-03-31T11:32:31;15.93;;;5.40;;
20545;SDS011;10431;50.228;9.112;2023-03-31T11:43:39;18.92;;;5.65;;
20545;SDS011;10431;50.228;9.112;2023-03-31T11:46:17;17.52;;;5.20;;
20545;SDS011;10431;50.228;9.112;2023-03-31T11:48:50;23.17;;;6.28;;
20545;SDS011;10431;50.228;9.112;2023-03-31T11:51:20;18.02;;;5.93;;
20545;SDS011;10431;50.228;9.112;2023-03-31T11:53:52;21.10;;;5.70;;
20545;SDS011;10431;50.228;9.112;2023-03-31T11:56:21;14.57;;;5.30;;
20545;SDS011;10431;50.228;9.112;2023-03-31T11:58:54;14.00;;;5.30;;
20545;SDS011;10431;50.228;9.112;2023-03-31T12:01:25;19.73;;;5.95;;
20545;SDS011;10431;50.228;9.112;2023-03-31T12:04:09;20.17;;;5.88;;
20545;SDS011;10431;50.228;9.112;2023-03-31T12:06:42;20.10;;;5.57;;
20545;SDS011;10431;50.228;9.112;2023-03-31T12:14:13;18.63;;;6.15;;
20545;SDS011;10431;50.228;9.112;2023-03-31T12:16:44;19.40;;;6.60;;
20545;SDS011;10431;50.228;9.112;2023-03-31T12:22:12;20.25;;;5.32;;
20545;SDS011;10431;50.228;9.112;2023-03-31T12:24:44;25.90;;;6.25;;
20545;SDS011;10431;50.228;9.112;2023-03-31T12:27:29;20.95;;;6.45;;
20545;SDS011;10431;50.228;9.112;2023-03-31T12:30:24;25.92;;;6.20;;
20545;SDS011;10431;50.228;9.112;2023-03-31T12:33:04;26.13;;;6.20;;
20545;SDS011;10431;50.228;9.112;2023-03-31T12:35:42;19.00;;;5.75;;
20545;SDS011;10431;50.228;9.112;2023-03-31T12:41:00;25.75;;;6.10;;
20545;SDS011;10431;50.228;9.112;2023-03-31T12:43:48;16.45;;;5.85;;
20545;SDS011;10431;50.228;9.112;2023-03-31T12:46:36;30.85;;;5.85;;
20545;SDS011;10431;50.228;9.112;2023-03-31T12:59:36;19.40;;;5.47;;
20545;SDS011;10431;50.228;9.112;2023-03-31T13:02:24;22.17;;;5.50;;
20545;SDS011;10431;50.228;9.112;2023-03-31T13:04:50;19.40;;;5.65;;
20545;SDS011;10431;50.228;9.112;2023-03-31T13:09:49;17.40;;;5.60;;
20545;SDS011;10431;50.228;9.112;2023-03-31T13:12:22;18.63;;;4.50;;
20545;SDS011;10431;50.228;9.112;2023-03-31T13:14:51;19.60;;;4.93;;
20545;SDS011;10431;50.228;9.112;2023-03-31T13:19:50;17.70;;;4.35;;
20545;SDS011;10431;50.228;9.112;2023-03-31T13:25:51;12.77;;;4.22;;
20545;SDS011;10431;50.228;9.112;2023-03-31T13:39:02;28.00;;;4.53;;
20545;SDS011;10431;50.228;9.112;2023-03-31T13:41:56;26.35;;;4.30;;
20545;SDS011;10431;50.228;9.112;2023-03-31T13:56:03;15.98;;;4.07;;
20545;SDS011;10431;50.228;9.112;2023-03-31T13:59:39;22.23;;;4.78;;
20545;SDS011;10431;50.228;9.112;2023-03-31T14:07:43;15.98;;;4.57;;
20545;SDS011;10431;50.228;9.112;2023-03-31T14:10:25;19.73;;;5.03;;
20545;SDS011;10431;50.228;9.112;2023-03-31T14:13:06;19.10;;;4.22;;
20545;SDS011;10431;50.228;9.112;2023-03-31T14:15:48;13.77;;;4.18;;
20545;SDS011;10431;50.228;9.112;2023-03-31T14:18:22;14.60;;;4.45;;
20545;SDS011;10431;50.228;9.112;2023-03-31T14:20:57;17.17;;;4.55;;
20545;SDS011;10431;50.228;9.112;2023-03-31T14:23:53;13.45;;;4.05;;
20545;SDS011;10431;50.228;9.112;2023-03-31T14:26:34;15.82;;;3.92;;
20545;SDS011;10431;50.228;9.112;2023-03-31T14:29:17;13.50;;;4.53;;
20545;SDS011;10431;50.228;9.112;2023-03-31T14:35:02;13.90;;;3.97;;
20545;SDS011;10431;50.228;9.112;2023-03-31T14:37:30;9.82;;;4.20;;
20545;SDS011;10431;50.228;9.112;2023-03-31T14:39:56;12.50;;;3.45;;
20545;SDS011;10431;50.228;9.112;2023-03-31T14:42:28;12.38;;;4.63;;
20545;SDS011;10431;50.228;9.112;2023-03-31T14:45:02;15.63;;;4.07;;
20545;SDS011;10431;50.228;9.112;2023-03-31T14:47:31;18.77;;;4.57;;
20545;SDS011;10431;50.228;9.112;2023-03-31T14:50:01;16.35;;;4.10;;
20545;SDS011;10431;50.228;9.112;2023-03-31T14:52:37;16.45;;;3.83;;
20545;SDS011;10431;50.228;9.112;2023-03-31T14:55:03;15.48;;;4.10;;
20545;SDS011;10431;50.228;9.112;2023-03-31T14:57:34;17.08;;;4.30;;
20545;SDS011;10431;50.228;9.112;2023-03-31T15:00:03;13.32;;;4.22;;
20545;SDS011;10431;50.228;9.112;2023-03-31T15:02:36;9.55;;;3.22;;
20545;SDS011;10431;50.228;9.112;2023-03-31T15:05:07;19.30;;;3.95;;
20545;SDS011;10431;50.228;9.112;2023-03-31T15:07:35;12.60;;;3.55;;
20545;SDS011;10431;50.228;9.112;2023-03-31T15:10:05;15.35;;;3.90;;
20545;SDS011;10431;50.228;9.112;2023-03-31T15:12:32;23.10;;;4.38;;
20545;SDS011;10431;50.228;9.112;2023-03-31T15:15:03;15.93;;;4.25;;
20545;SDS011;10431;50.228;9.112;2023-03-31T15:17:35;19.75;;;4.22;;
20545;SDS011;10431;50.228;9.112;2023-03-31T15:22:57;19.58;;;4.95;;
20545;SDS011;10431;50.228;9.112;2023-03-31T15:25:26;24.80;;;5.22;;
20545;SDS011;10431;50.228;9.112;2023-03-31T15:28:03;12.13;;;4.57;;
20545;SDS011;10431;50.228;9.112;2023-03-31T15:30:32;19.75;;;5.50;;
20545;SDS011;10431;50.228;9.112;2023-03-31T15:32:59;21.83;;;4.90;;
20545;SDS011;10431;50.228;9.112;2023-03-31T15:35:29;18.02;;;4.80;;
20545;SDS011;10431;50.228;9.112;2023-03-31T15:37:58;15.68;;;4.65;;
20545;SDS011;10431;50.228;9.112;2023-03-31T15:40:28;13.23;;;4.43;;
20545;SDS011;10431;50.228;9.112;2023-03-31T15:43:07;19.25;;;4.75;;
20545;SDS011;10431;50.228;9.112;2023-03-31T15:45:51;20.00;;;5.03;;
20545;SDS011;10431;50.228;9.112;2023-03-31T15:48:21;13.70;;;3.85;;
20545;SDS011;10431;50.228;9.112;2023-03-31T15:50:48;14.85;;;5.05;;
20545;SDS011;10431;50.228;9.112;2023-03-31T15:56:00;13.43;;;4.25;;
20545;SDS011;10431;50.228;9.112;2023-03-31T15:58:47;14.20;;;4.43;;
20545;SDS011;10431;50.228;9.112;2023-03-31T16:01:19;13.07;;;4.13;;
20545;SDS011;10431;50.228;9.112;2023-03-31T16:03:47;17.65;;;4.18;;
20545;SDS011;10431;50.228;9.112;2023-03-31T16:06:27;17.73;;;4.25;;
20545;SDS011;10431;50.228;9.112;2023-03-31T16:09:06;17.15;;;3.83;;
20545;SDS011;10431;50.228;9.112;2023-03-31T16:11:35;15.45;;;3.97;;
20545;SDS011;10431;50.228;9.112;2023-03-31T16:14:09;11.95;;;3.70;;
20545;SDS011;10431;50.228;9.112;2023-03-31T16:16:59;13.65;;;4.28;;
20545;SDS011;10431;50.228;9.112;2023-03-31T16:19:37;12.07;;;3.88;;
20545;SDS011;10431;50.228;9.112;2023-03-31T16:22:07;13.07;;;3.80;;
20545;SDS011;10431;50.228;9.112;2023-03-31T16:24:43;10.48;;;3.65;;
20545;SDS011;10431;50.228;9.112;2023-03-31T16:27:09;16.17;;;4.35;;
20545;SDS011;10431;50.228;9.112;2023-03-31T16:29:36;9.98;;;3.58;;
20545;SDS011;10431;50.228;9.112;2023-03-31T16:32:13;12.95;;;4.05;;
20545;SDS011;10431;50.228;9.112;2023-03-31T16:34:54;10.82;;;3.45;;
20545;SDS011;10431;50.228;9.112;2023-03-31T16:37:21;14.43;;;4.22;;
20545;SDS011;10431;50.228;9.112;2023-03-31T16:39:48;13.20;;;3.78;;
20545;SDS011;10431;50.228;9.112;2023-03-31T16:42:14;8.65;;;3.75;;
20545;SDS011;10431;50.228;9.112;2023-03-31T16:44:40;11.20;;;3.40;;
20545;SDS011;10431;50.228;9.112;2023-03-31T16:47:07;12.63;;;3.75;;
20545;SDS011;10431;50.228;9.112;2023-03-31T16:49:33;10.30;;;3.58;;
20545;SDS011;10431;50.228;9.112;2023-03-31T16:51:59;12.80;;;3.47;;
20545;SDS011;10431;50.228;9.112;2023-03-31T16:54:25;11.82;;;3.28;;
20545;SDS011;10431;50.228;9.112;2023-03-31T16:56:51;10.00;;;3.97;;
20545;SDS011;10431;50.228;9.112;2023-03-31T16:59:18;7.25;;;2.92;;
20545;SDS011;10431;50.228;9.112;2023-03-31T17:01:44;8.88;;;3.33;;
20545;SDS011;10431;50.228;9.112;2023-03-31T17:04:10;9.50;;;3.35;;
20545;SDS011;10431;50.228;9.112;2023-03-31T17:06:37;10.80;;;3.30;;
20545;SDS011;10431;50.228;9.112;2023-03-31T17:09:03;9.98;;;3.17;;
20545;SDS011;10431;50.228;9.112;2023-03-31T17:11:29;10.52;;;3.47;;
20545;SDS011;10431;50.228;9.112;2023-03-31T17:13:56;8.00;;;3.25;;
20545;SDS011;10431;50.228;9.112;2023-03-31T17:16:24;7.53;;;2.88;;
20545;SDS011;10431;50.228;9.112;2023-03-31T17:18:51;9.77;;;3.38;;
20545;SDS011;10431;50.228;9.112;2023-03-31T17:21:17;8.20;;;2.75;;
20545;SDS011;10431;50.228;9.112;2023-03-31T17:23:44;8.43;;;3.17;;
20545;SDS011;10431;50.228;9.112;2023-03-31T17:26:11;9.40;;;3.03;;
20545;SDS011;10431;50.228;9.112;2023-03-31T17:28:38;9.73;;;3.47;;
20545;SDS011;10431;50.228;9.112;2023-03-31T17:31:16;10.70;;;3.15;;
20545;SDS011;10431;50.228;9.112;2023-03-31T17:33:44;6.35;;;2.67;;
20545;SDS011;10431;50.228;9.112;2023-03-31T17:36:10;8.07;;;2.58;;
20545;SDS011;10431;50.228;9.112;2023-03-31T17:38:37;7.05;;;2.90;;
20545;SDS011;10431;50.228;9.112;2023-03-31T17:41:04;7.63;;;3.08;;
20545;SDS011;10431;50.228;9.112;2023-03-31T17:43:31;7.10;;;2.60;;
20545;SDS011;10431;50.228;9.112;2023-03-31T17:46:01;8.35;;;2.78;;
20545;SDS011;10431;50.228;9.112;2023-03-31T17:48:29;8.30;;;2.95;;
20545;SDS011;10431;50.228;9.112;2023-03-31T17:50:56;6.22;;;2.67;;
20545;SDS011;10431;50.228;9.112;2023-03-31T17:53:23;8.20;;;2.90;;
20545;SDS011;10431;50.228;9.112;2023-03-31T17:55:49;6.28;;;3.05;;
20545;SDS011;10431;50.228;9.112;2023-03-31T17:58:15;9.10;;;2.80;;
20545;SDS011;10431;50.228;9.112;2023-03-31T18:00:42;6.43;;;2.55;;
20545;SDS011;10431;50.228;9.112;2023-03-31T18:03:08;7.90;;;3.20;;